Time;durP1;ratioP1;P1;durP2;ratioP2;P2;SDS_P1;SDS_P2;PMS_P1;PMS_P2;Temp;Humidity;BMP_temperature;BMP_pressure;BME280_temperature;BME280_humidity;BME280_pressure;Samples;Min_cycle;Max_cycle;Signal;HPM_P1;HPM_P2
2021/07/30 00:00:21;;;;;;;3.78;2.60;;;22.40;59.30;;;;;;5069523;28;20178;-66
2021/07/30 00:02:47;;;;;;;7.70;2.67;;;22.40;59.30;;;;;;5070520;28;20576;-66
2021/07/30 00:05:12;;;;;;;3.70;3.05;;;22.40;59.40;;;;;;5071050;28;20187;-67
2021/07/30 00:07:38;;;;;;;2.88;2.55;;;22.40;59.40;;;;;;5069656;28;20214;-66
2021/07/30 00:10:04;;;;;;;2.58;2.38;;;22.40;59.40;;;;;;5072810;28;20516;-67
2021/07/30 00:12:29;;;;;;;2.55;2.30;;;22.40;59.40;;;;;;5074011;28;20515;-67
2021/07/30 00:14:55;;;;;;;2.97;2.38;;;22.40;59.40;;;;;;5073672;28;20175;-66
2021/07/30 00:17:20;;;;;;;2.92;2.72;;;22.40;59.40;;;;;;5073839;28;20202;-67
2021/07/30 00:19:46;;;;;;;3.28;2.80;;;22.40;59.50;;;;;;5074176;28;20174;-66
2021/07/30 00:22:11;;;;;;;2.60;2.40;;;22.40;59.50;;;;;;5073500;28;20171;-66
2021/07/30 00:24:37;;;;;;;2.95;2.65;;;22.30;59.40;;;;;;5073497;28;20574;-66
2021/07/30 00:27:02;;;;;;;4.07;2.65;;;22.40;59.50;;;;;;5074157;28;20213;-66
2021/07/30 00:29:28;;;;;;;3.28;2.35;;;22.30;59.40;;;;;;5073239;28;20270;-66
2021/07/30 00:31:53;;;;;;;2.45;2.25;;;22.30;59.50;;;;;;5073832;28;20193;-66
2021/07/30 00:34:19;;;;;;;2.67;2.47;;;22.30;59.50;;;;;;5073514;28;20174;-67
2021/07/30 00:36:44;;;;;;;3.58;2.47;;;22.30;59.50;;;;;;5073401;28;20265;-68
2021/07/30 00:39:10;;;;;;;2.67;2.40;;;22.30;59.50;;;;;;5073955;28;20257;-68
2021/07/30 00:41:39;;;;;;;2.67;2.47;;;22.30;59.50;;;;;;5073178;28;20186;-67
2021/07/30 00:44:07;;;;;;;2.97;2.60;;;22.30;59.50;;;;;;5074025;28;20238;-68
2021/07/30 00:46:33;;;;;;;3.80;2.50;;;22.30;59.60;;;;;;5073515;28;20259;-67
2021/07/30 00:48:59;;;;;;;2.92;2.63;;;22.30;59.50;;;;;;5055331;28;20262;-67
2021/07/30 00:51:24;;;;;;;3.63;2.83;;;22.30;59.50;;;;;;5072343;28;20637;-68
2021/07/30 00:53:50;;;;;;;3.20;2.58;;;22.20;59.50;;;;;;5059216;28;20542;-68
2021/07/30 00:56:16;;;;;;;3.47;2.15;;;22.30;59.60;;;;;;5053064;28;20179;-68
2021/07/30 00:58:42;;;;;;;2.78;2.58;;;22.30;59.60;;;;;;5053746;28;20245;-67
2021/07/30 01:01:08;;;;;;;3.05;2.70;;;22.20;59.60;;;;;;5052177;28;20633;-67
2021/07/30 01:03:34;;;;;;;3.20;2.58;;;22.20;59.60;;;;;;5051369;28;20206;-67
2021/07/30 01:06:00;;;;;;;2.53;2.38;;;22.20;59.60;;;;;;5053960;28;20167;-67
2021/07/30 01:08:25;;;;;;;2.42;2.20;;;22.20;59.60;;;;;;5053000;28;20688;-67
2021/07/30 01:10:51;;;;;;;3.22;2.65;;;22.20;59.60;;;;;;5052738;28;20179;-67
2021/07/30 01:13:16;;;;;;;3.15;2.85;;;22.20;59.60;;;;;;5053336;28;20190;-67
2021/07/30 01:15:42;;;;;;;2.40;2.20;;;22.20;59.60;;;;;;5053418;28;20176;-67
2021/07/30 01:18:07;;;;;;;3.22;2.50;;;22.20;59.60;;;;;;5052354;28;20175;-67
2021/07/30 01:20:33;;;;;;;2.58;2.38;;;22.20;59.60;;;;;;5052122;28;20574;-66
2021/07/30 01:22:59;;;;;;;2.67;2.47;;;22.20;59.60;;;;;;5034958;28;20186;-66
2021/07/30 01:25:28;;;;;;;2.47;2.30;;;22.20;59.60;;;;;;5051840;28;20187;-64
2021/07/30 01:27:54;;;;;;;2.50;2.30;;;22.20;59.60;;;;;;5053211;28;20578;-66
2021/07/30 01:30:20;;;;;;;2.80;2.42;;;22.20;59.60;;;;;;5052461;28;20656;-66
2021/07/30 01:32:45;;;;;;;3.17;2.88;;;22.20;59.70;;;;;;5052407;28;20171;-66
2021/07/30 01:35:11;;;;;;;3.72;2.83;;;22.10;59.60;;;;;;5053105;28;20225;-67
2021/07/30 01:37:37;;;;;;;2.88;2.65;;;22.20;59.70;;;;;;5052603;28;20181;-67
2021/07/30 01:40:04;;;;;;;2.67;2.47;;;22.10;59.60;;;;;;5052255;28;20174;-67
2021/07/30 01:42:29;;;;;;;2.80;2.50;;;22.10;59.60;;;;;;5052326;28;20202;-68
2021/07/30 01:44:55;;;;;;;3.92;3.08;;;22.10;59.60;;;;;;5051725;28;20245;-67
2021/07/30 01:47:20;;;;;;;2.70;2.50;;;22.10;59.60;;;;;;5052981;28;20250;-66
2021/07/30 01:49:47;;;;;;;4.07;2.78;;;22.10;59.60;;;;;;5052453;28;20232;-66
2021/07/30 01:52:13;;;;;;;3.55;2.55;;;22.10;59.70;;;;;;5052955;28;20175;-66
2021/07/30 01:54:38;;;;;;;3.17;2.88;;;22.10;59.60;;;;;;5072030;28;20167;-66
2021/07/30 01:57:04;;;;;;;2.70;2.50;;;22.10;59.60;;;;;;5072383;28;20182;-66
2021/07/30 01:59:30;;;;;;;3.17;2.88;;;22.10;59.70;;;;;;5071204;28;20178;-67
2021/07/30 02:01:55;;;;;;;2.75;2.55;;;22.10;59.70;;;;;;5072428;28;20174;-67
2021/07/30 02:04:21;;;;;;;2.97;2.78;;;22.10;59.70;;;;;;5071959;28;20274;-67
2021/07/30 02:06:46;;;;;;;2.63;2.42;;;22.10;59.70;;;;;;5071479;28;20276;-68
2021/07/30 02:09:12;;;;;;;2.92;2.72;;;22.10;59.70;;;;;;5072237;28;20186;-67
2021/07/30 02:11:43;;;;;;;3.08;2.78;;;22.00;59.60;;;;;;5071928;28;20170;-68
2021/07/30 02:14:15;;;;;;;3.83;3.00;;;22.00;59.70;;;;;;5071710;28;20173;-67
2021/07/30 02:16:42;;;;;;;3.50;2.75;;;22.00;59.70;;;;;;5072021;28;20265;-68
2021/07/30 02:19:07;;;;;;;2.70;2.45;;;22.00;59.70;;;;;;5072019;28;20175;-67
2021/07/30 02:21:33;;;;;;;3.50;2.47;;;22.00;59.70;;;;;;5070919;28;20647;-66
2021/07/30 02:23:58;;;;;;;3.00;2.60;;;22.00;59.70;;;;;;5071777;28;20214;-66
2021/07/30 02:26:24;;;;;;;3.95;2.75;;;22.00;59.70;;;;;;5071602;28;20533;-66
2021/07/30 02:28:49;;;;;;;2.92;2.60;;;22.00;59.70;;;;;;5071132;28;20197;-66
2021/07/30 02:31:15;;;;;;;2.90;2.70;;;22.00;59.80;;;;;;5072038;28;20541;-68
2021/07/30 02:33:40;;;;;;;3.65;3.35;;;22.10;59.80;;;;;;5071196;28;20179;-67
2021/07/30 02:36:06;;;;;;;2.92;2.72;;;22.00;59.80;;;;;;5071043;28;20636;-67
2021/07/30 02:38:31;;;;;;;3.08;2.70;;;22.00;59.70;;;;;;5071346;28;20181;-66
2021/07/30 02:40:57;;;;;;;3.28;3.08;;;22.00;59.80;;;;;;5071803;28;20170;-66
2021/07/30 02:43:22;;;;;;;3.33;2.72;;;22.00;59.80;;;;;;5070689;28;20199;-67
2021/07/30 02:45:48;;;;;;;3.17;2.97;;;22.00;59.80;;;;;;5071622;28;20175;-66
2021/07/30 02:48:13;;;;;;;2.83;2.63;;;22.00;59.80;;;;;;5071037;28;20269;-66
2021/07/30 02:50:39;;;;;;;2.80;2.60;;;22.00;59.80;;;;;;5071437;28;20181;-66
2021/07/30 02:53:04;;;;;;;2.75;2.55;;;22.00;59.80;;;;;;5063255;28;20167;-66
2021/07/30 02:55:30;;;;;;;4.05;2.92;;;22.00;59.80;;;;;;5050509;28;20605;-66
2021/07/30 02:57:55;;;;;;;2.80;2.60;;;21.90;59.70;;;;;;5051302;28;20179;-67
2021/07/30 03:00:21;;;;;;;2.95;2.75;;;21.90;59.70;;;;;;5051567;28;20171;-67
2021/07/30 03:02:46;;;;;;;3.00;2.80;;;21.90;59.70;;;;;;5050816;28;20195;-68
2021/07/30 03:05:12;;;;;;;2.92;2.72;;;21.90;59.80;;;;;;5051394;28;20191;-67
2021/07/30 03:07:37;;;;;;;3.35;2.97;;;21.90;59.70;;;;;;5051118;28;20280;-69
2021/07/30 03:10:03;;;;;;;3.10;2.88;;;21.90;59.70;;;;;;5050851;28;20175;-68
2021/07/30 03:12:29;;;;;;;3.47;3.20;;;21.90;59.80;;;;;;5050994;28;20167;-68
2021/07/30 03:14:54;;;;;;;3.08;2.88;;;21.90;59.80;;;;;;5051472;28;20317;-66
2021/07/30 03:17:20;;;;;;;3.05;2.85;;;21.90;59.80;;;;;;5050434;28;20168;-66
2021/07/30 03:19:45;;;;;;;3.30;3.00;;;21.90;59.80;;;;;;5051269;28;20186;-66
2021/07/30 03:22:11;;;;;;;3.35;3.05;;;21.90;59.80;;;;;;5051148;28;20535;-66
2021/07/30 03:24:36;;;;;;;2.90;2.70;;;21.80;59.80;;;;;;5050142;28;20249;-66
2021/07/30 03:27:02;;;;;;;3.40;3.10;;;21.90;59.80;;;;;;5051500;28;20167;-66
2021/07/30 03:29:27;;;;;;;3.53;3.22;;;21.90;59.80;;;;;;5051022;28;20241;-66
2021/07/30 03:31:53;;;;;;;2.67;2.47;;;21.90;59.80;;;;;;5050670;28;20228;-66
2021/07/30 03:34:18;;;;;;;2.78;2.58;;;21.90;59.80;;;;;;5050775;28;20585;-67
2021/07/30 03:36:44;;;;;;;3.25;2.92;;;21.80;59.70;;;;;;5051157;28;20179;-67
2021/07/30 03:39:09;;;;;;;3.38;3.00;;;21.80;59.70;;;;;;5050421;28;20186;-67
2021/07/30 03:41:36;;;;;;;3.00;2.80;;;21.80;59.70;;;;;;5050628;28;20400;-67
2021/07/30 03:44:01;;;;;;;2.80;2.60;;;21.80;59.80;;;;;;5051456;28;20301;-66
2021/07/30 03:46:27;;;;;;;2.80;2.58;;;21.80;59.80;;;;;;5054197;28;20301;-66
2021/07/30 03:48:52;;;;;;;3.38;2.60;;;21.80;59.80;;;;;;5054584;28;20179;-65
2021/07/30 03:51:18;;;;;;;3.17;2.95;;;21.80;59.80;;;;;;5054663;28;20533;-67
2021/07/30 03:53:43;;;;;;;2.88;2.67;;;21.80;59.80;;;;;;5067711;28;20182;-68
2021/07/30 03:56:15;;;;;;;3.03;2.67;;;21.80;59.80;;;;;;5074706;28;20186;-68
2021/07/30 03:58:42;;;;;;;3.03;2.83;;;21.80;59.80;;;;;;5074284;28;20335;-68
2021/07/30 04:01:11;;;;;;;3.13;2.83;;;21.80;59.80;;;;;;5074801;28;20220;-67
2021/07/30 04:03:37;;;;;;;2.90;2.70;;;21.80;59.80;;;;;;5074447;28;20217;-69
2021/07/30 04:06:03;;;;;;;3.53;2.72;;;21.80;59.80;;;;;;5074065;28;20185;-68
2021/07/30 04:08:28;;;;;;;3.20;2.90;;;21.80;59.70;;;;;;5074160;28;20230;-69
2021/07/30 04:10:54;;;;;;;3.08;2.88;;;21.80;59.80;;;;;;5074489;28;20504;-67
2021/07/30 04:13:19;;;;;;;2.97;2.67;;;21.80;59.80;;;;;;5072895;28;20179;-68
2021/07/30 04:15:45;;;;;;;3.10;2.80;;;21.80;59.80;;;;;;5074444;28;20629;-69
2021/07/30 04:18:10;;;;;;;4.25;2.97;;;21.80;59.80;;;;;;5074435;28;20174;-68
2021/07/30 04:20:39;;;;;;;3.00;2.80;;;21.80;59.80;;;;;;5073211;28;20190;-67
2021/07/30 04:23:04;;;;;;;3.40;3.10;;;21.80;59.80;;;;;;5073875;28;20166;-67
2021/07/30 04:25:30;;;;;;;4.35;3.40;;;21.80;59.80;;;;;;5074152;28;20261;-68
2021/07/30 04:27:55;;;;;;;3.03;2.83;;;21.70;59.80;;;;;;5073546;28;20201;-68
2021/07/30 04:30:23;;;;;;;3.08;2.88;;;21.70;59.70;;;;;;5073744;28;20174;-67
2021/07/30 04:32:48;;;;;;;3.15;2.95;;;21.70;59.80;;;;;;5074276;28;20171;-67
2021/07/30 04:35:13;;;;;;;3.08;2.75;;;21.80;59.80;;;;;;5073279;28;20693;-68
2021/07/30 04:37:39;;;;;;;3.35;3.05;;;21.70;59.80;;;;;;5073788;28;20232;-68
2021/07/30 04:40:05;;;;;;;3.88;2.80;;;21.70;59.80;;;;;;5072730;28;20179;-68
2021/07/30 04:42:30;;;;;;;4.55;3.20;;;21.70;59.80;;;;;;5072991;28;20285;-68
2021/07/30 04:44:56;;;;;;;3.10;2.90;;;21.80;59.90;;;;;;5073844;28;20218;-67
2021/07/30 04:47:22;;;;;;;2.92;2.72;;;21.80;59.80;;;;;;5073556;28;20623;-68
2021/07/30 04:49:47;;;;;;;3.30;3.00;;;21.80;59.80;;;;;;5073119;28;20269;-68
2021/07/30 04:52:13;;;;;;;3.15;2.88;;;21.70;59.80;;;;;;5072481;28;20174;-67
2021/07/30 04:54:38;;;;;;;2.97;2.78;;;21.80;59.90;;;;;;5053100;28;20202;-67
2021/07/30 04:57:04;;;;;;;3.20;2.90;;;21.50;59.70;;;;;;5053189;28;20171;-67
2021/07/30 04:59:30;;;;;;;3.00;2.80;;;21.70;59.80;;;;;;5053295;28;20178;-68
2021/07/30 05:01:55;;;;;;;3.20;3.00;;;21.70;59.70;;;;;;5052790;28;20309;-67
2021/07/30 05:04:21;;;;;;;3.20;2.90;;;21.80;59.90;;;;;;5053196;28;20297;-68
2021/07/30 05:06:46;;;;;;;3.20;2.90;;;21.70;59.80;;;;;;5053187;28;20220;-67
2021/07/30 05:09:12;;;;;;;3.35;3.13;;;21.70;59.80;;;;;;5052599;28;20187;-68
2021/07/30 05:11:37;;;;;;;3.88;2.65;;;21.80;59.80;;;;;;5053217;28;20289;-68
2021/07/30 05:14:04;;;;;;;3.28;2.95;;;21.70;59.80;;;;;;5053063;28;20592;-68
2021/07/30 05:16:29;;;;;;;3.00;2.60;;;21.70;59.80;;;;;;5052334;28;20272;-68
2021/07/30 05:18:55;;;;;;;3.15;2.85;;;21.70;59.80;;;;;;5053374;28;20649;-67
2021/07/30 05:21:20;;;;;;;3.00;2.80;;;21.70;59.80;;;;;;5052940;28;20171;-68
2021/07/30 05:23:46;;;;;;;2.92;2.72;;;21.80;59.90;;;;;;5052364;28;20695;-68
2021/07/30 05:26:11;;;;;;;2.88;2.67;;;21.70;59.80;;;;;;5053075;28;20668;-67
2021/07/30 05:28:37;;;;;;;3.47;3.20;;;21.70;59.80;;;;;;5052824;28;20175;-67
2021/07/30 05:31:02;;;;;;;3.22;3.03;;;21.70;59.80;;;;;;5052304;28;20215;-66
2021/07/30 05:33:28;;;;;;;3.10;2.90;;;21.70;59.80;;;;;;5052594;28;20224;-66
2021/07/30 05:35:54;;;;;;;3.58;3.10;;;21.70;59.80;;;;;;5052792;28;20312;-67
2021/07/30 05:38:20;;;;;;;3.33;3.10;;;21.70;59.80;;;;;;5051645;28;20181;-66
2021/07/30 05:40:45;;;;;;;3.10;2.90;;;21.70;59.80;;;;;;5052572;28;20184;-66
2021/07/30 05:43:11;;;;;;;3.75;3.17;;;21.70;59.80;;;;;;5052763;28;20198;-66
2021/07/30 05:45:36;;;;;;;3.30;3.00;;;21.70;59.70;;;;;;5051697;28;20206;-66
2021/07/30 05:48:02;;;;;;;4.30;3.30;;;21.80;59.80;;;;;;5052668;28;20178;-66
2021/07/30 05:50:28;;;;;;;4.03;2.90;;;21.80;59.80;;;;;;5052393;28;20345;-66
2021/07/30 05:52:53;;;;;;;3.17;2.97;;;21.80;59.70;;;;;;5058090;28;20603;-66
2021/07/30 05:55:19;;;;;;;3.00;2.80;;;21.80;59.60;;;;;;5072040;28;20176;-67
2021/07/30 05:57:44;;;;;;;2.80;2.60;;;21.80;59.60;;;;;;5072502;28;20174;-67
2021/07/30 06:00:10;;;;;;;3.17;2.97;;;21.90;59.60;;;;;;5071636;28;20183;-67
2021/07/30 06:02:36;;;;;;;3.33;3.05;;;21.80;59.60;;;;;;5072072;28;20185;-67
2021/07/30 06:05:01;;;;;;;3.40;3.13;;;21.90;59.60;;;;;;5071409;28;20218;-67
2021/07/30 06:07:27;;;;;;;3.03;2.83;;;21.80;59.60;;;;;;5071457;28;20221;-67
2021/07/30 06:09:52;;;;;;;3.33;3.03;;;21.80;59.60;;;;;;5072442;28;20324;-68
2021/07/30 06:12:18;;;;;;;2.72;2.53;;;21.80;59.60;;;;;;5071131;28;20179;-68
2021/07/30 06:14:47;;;;;;;3.10;2.90;;;21.90;59.60;;;;;;5071932;28;20174;-66
2021/07/30 06:17:13;;;;;;;3.58;3.28;;;21.90;59.60;;;;;;5071847;28;20182;-67
2021/07/30 06:19:38;;;;;;;3.63;3.33;;;21.90;59.50;;;;;;5070915;28;20182;-67
2021/07/30 06:22:04;;;;;;;3.97;3.67;;;21.90;59.40;;;;;;5071718;28;20537;-66
2021/07/30 06:24:29;;;;;;;2.80;2.60;;;21.90;59.40;;;;;;5071198;28;20214;-66
2021/07/30 06:26:55;;;;;;;3.55;3.33;;;21.90;59.40;;;;;;5071178;28;20223;-66
2021/07/30 06:29:20;;;;;;;3.38;3.08;;;21.90;59.50;;;;;;5071520;28;20178;-67
2021/07/30 06:31:46;;;;;;;3.65;3.13;;;21.90;59.50;;;;;;5071499;28;20613;-67
2021/07/30 06:34:11;;;;;;;3.35;3.05;;;21.90;59.50;;;;;;5071036;28;20215;-67
2021/07/30 06:36:37;;;;;;;3.15;2.88;;;21.90;59.60;;;;;;5071271;28;20223;-68
2021/07/30 06:39:03;;;;;;;3.08;2.88;;;21.90;59.60;;;;;;5071796;28;20197;-67
2021/07/30 06:41:37;;;;;;;3.40;3.10;;;21.90;59.50;;;;;;5070752;28;20239;-67
2021/07/30 06:44:03;;;;;;;3.33;2.78;;;22.00;59.50;;;;;;5071453;28;20210;-67
2021/07/30 06:46:29;;;;;;;4.18;3.58;;;22.00;59.50;;;;;;5071408;28;20543;-67
2021/07/30 06:48:54;;;;;;;3.38;3.08;;;22.00;59.50;;;;;;5070781;28;20198;-67
2021/07/30 06:51:20;;;;;;;3.17;2.85;;;22.00;59.50;;;;;;5071110;28;20170;-66
2021/07/30 06:53:45;;;;;;;3.13;2.92;;;22.00;59.50;;;;;;5057541;28;20556;-67
2021/07/30 06:56:11;;;;;;;3.35;3.05;;;22.00;59.40;;;;;;5051039;28;20260;-67
2021/07/30 06:58:37;;;;;;;4.68;3.10;;;22.00;59.40;;;;;;5051164;28;20206;-67
2021/07/30 07:01:03;;;;;;;3.35;3.03;;;22.10;59.50;;;;;;5051552;28;20326;-68
2021/07/30 07:03:29;;;;;;;3.85;3.20;;;22.00;59.40;;;;;;5050212;28;20214;-68
2021/07/30 07:05:54;;;;;;;3.45;2.85;;;22.00;59.30;;;;;;5051231;28;20195;-67
2021/07/30 07:08:20;;;;;;;3.50;3.20;;;22.10;59.40;;;;;;5050318;28;20226;-68
2021/07/30 07:10:46;;;;;;;3.20;2.97;;;22.10;59.30;;;;;;5051392;28;20179;-68
2021/07/30 07:13:11;;;;;;;4.28;3.03;;;22.10;59.30;;;;;;5051135;28;20166;-68
2021/07/30 07:15:42;;;;;;;3.30;3.03;;;22.10;59.40;;;;;;5050238;28;20183;-67
2021/07/30 07:18:08;;;;;;;3.50;3.20;;;22.10;59.30;;;;;;5051233;28;20225;-67
2021/07/30 07:20:36;;;;;;;2.85;2.65;;;22.10;59.40;;;;;;5053886;28;20171;-67
2021/07/30 07:23:02;;;;;;;3.22;2.90;;;22.10;59.30;;;;;;5054598;28;20531;-67
2021/07/30 07:25:27;;;;;;;3.40;3.05;;;22.10;59.30;;;;;;5055341;28;20179;-66
2021/07/30 07:27:53;;;;;;;3.17;2.95;;;22.10;59.40;;;;;;5055328;28;20183;-69
2021/07/30 07:30:19;;;;;;;3.78;3.28;;;22.10;59.40;;;;;;5054337;28;20183;-67
2021/07/30 07:32:44;;;;;;;2.92;2.72;;;22.10;59.40;;;;;;5055229;28;20245;-69
2021/07/30 07:35:10;;;;;;;3.45;3.10;;;22.10;59.40;;;;;;5055429;28;20626;-68
2021/07/30 07:37:35;;;;;;;3.40;3.10;;;22.10;59.30;;;;;;5054342;28;20286;-67
2021/07/30 07:40:01;;;;;;;3.33;3.08;;;22.20;60.00;;;;;;5055008;28;20230;-68
2021/07/30 07:42:26;;;;;;;3.60;3.30;;;22.20;59.30;;;;;;5036761;28;20605;-67
2021/07/30 07:44:52;;;;;;;3.10;2.90;;;22.20;59.30;;;;;;5054294;28;20214;-66
2021/07/30 07:47:17;;;;;;;3.30;3.00;;;22.20;60.10;;;;;;5054600;28;20241;-66
2021/07/30 07:49:43;;;;;;;4.75;3.83;;;22.20;59.40;;;;;;5055164;28;20237;-66
2021/07/30 07:52:08;;;;;;;3.67;3.00;;;22.20;59.30;;;;;;5054469;28;20209;-66
2021/07/30 07:54:34;;;;;;;4.18;3.30;;;22.10;59.20;;;;;;5054718;28;20250;-66
2021/07/30 07:57:02;;;;;;;4.32;3.38;;;22.20;59.30;;;;;;5054797;28;20175;-66
2021/07/30 07:59:28;;;;;;;3.42;3.13;;;22.20;59.30;;;;;;5053671;28;20186;-66
2021/07/30 08:01:57;;;;;;;3.65;3.35;;;22.20;59.50;;;;;;5054661;28;20175;-66
2021/07/30 08:04:35;;;;;;;3.55;3.13;;;22.20;59.50;;;;;;5054255;28;20578;-65
2021/07/30 08:07:01;;;;;;;4.07;3.33;;;22.20;59.60;;;;;;5054507;28;20175;-63
2021/07/30 08:09:28;;;;;;;5.03;3.55;;;22.20;59.60;;;;;;5054352;28;20281;-64
2021/07/30 08:11:53;;;;;;;5.32;3.08;;;22.20;59.50;;;;;;5053747;28;20176;-67
2021/07/30 08:14:19;;;;;;;3.53;3.22;;;22.30;59.50;;;;;;5053941;28;20534;-66
2021/07/30 08:16:45;;;;;;;4.30;3.30;;;22.30;59.50;;;;;;5049150;28;20202;-66
2021/07/30 08:19:19;;;;;;;4.55;3.08;;;22.40;59.50;;;;;;5044090;28;20176;-66
2021/07/30 08:21:54;;;;;;;3.17;2.88;;;22.40;59.50;;;;;;5042130;28;20172;-67
2021/07/30 08:24:19;;;;;;;4.45;2.95;;;22.50;59.40;;;;;;5032863;28;20237;-66
2021/07/30 08:26:45;;;;;;;4.07;3.15;;;22.50;59.30;;;;;;5033277;28;20172;-66
2021/07/30 08:29:10;;;;;;;3.55;3.25;;;22.60;59.40;;;;;;5034031;28;20179;-66
2021/07/30 08:31:36;;;;;;;5.80;3.20;;;22.60;59.40;;;;;;5032994;28;20223;-66
2021/07/30 08:34:02;;;;;;;4.57;3.33;;;22.60;59.30;;;;;;5033396;28;20274;-66
2021/07/30 08:36:27;;;;;;;3.42;3.10;;;22.60;59.30;;;;;;5033845;28;20254;-66
2021/07/30 08:38:55;;;;;;;4.30;3.28;;;22.60;59.40;;;;;;5033808;28;20582;-67
2021/07/30 08:41:21;;;;;;;4.05;3.25;;;22.70;59.40;;;;;;5032955;28;20484;-66
2021/07/30 08:43:53;;;;;;;8.40;3.95;;;22.70;59.40;;;;;;5033803;28;20658;-67
2021/07/30 08:46:22;;;;;;;3.55;3.17;;;22.70;59.40;;;;;;5033478;28;20183;-66
2021/07/30 08:48:48;;;;;;;3.53;3.22;;;22.80;59.40;;;;;;5033359;28;20236;-65
2021/07/30 08:51:15;;;;;;;3.45;3.10;;;22.70;59.40;;;;;;5033521;28;20248;-66
2021/07/30 08:53:40;;;;;;;3.17;2.88;;;22.70;59.40;;;;;;5033397;28;20184;-64
2021/07/30 08:56:06;;;;;;;3.35;3.05;;;22.70;59.40;;;;;;5032733;28;20167;-66
2021/07/30 08:58:37;;;;;;;3.47;3.17;;;22.80;59.50;;;;;;5033204;28;20187;-65
2021/07/30 09:01:03;;;;;;;3.50;3.20;;;22.80;59.50;;;;;;5032875;28;20247;-66
2021/07/30 09:03:38;;;;;;;3.45;3.13;;;22.80;59.50;;;;;;5033145;28;20617;-66
2021/07/30 09:06:20;;;;;;;4.43;3.25;;;22.80;59.50;;;;;;5033224;28;20187;-67
2021/07/30 09:09:03;;;;;;;3.78;3.40;;;22.80;59.50;;;;;;5032004;28;20277;-67
2021/07/30 09:11:29;;;;;;;3.60;3.30;;;22.80;59.50;;;;;;5033004;28;20180;-66
2021/07/30 09:13:55;;;;;;;3.20;2.90;;;22.90;59.50;;;;;;5033035;28;20263;-66
2021/07/30 09:16:21;;;;;;;4.07;3.15;;;22.90;59.50;;;;;;5032083;28;20575;-67
2021/07/30 09:18:46;;;;;;;3.72;2.92;;;22.90;59.40;;;;;;5032768;28;20176;-66
2021/07/30 09:21:16;;;;;;;3.47;2.97;;;22.90;59.50;;;;;;5032904;28;20189;-67
2021/07/30 09:23:54;;;;;;;3.75;3.08;;;22.90;59.40;;;;;;5042672;28;20243;-66
2021/07/30 09:26:56;;;;;;;4.30;3.03;;;22.90;59.30;;;;;;5068088;28;20174;-65
2021/07/30 09:29:24;;;;;;;3.65;3.30;;;23.00;59.30;;;;;;5031788;28;20181;-66
2021/07/30 09:32:09;;;;;;;4.45;3.13;;;22.90;59.40;;;;;;5048380;28;20179;-66
2021/07/30 09:34:38;;;;;;;3.88;3.47;;;22.90;59.40;;;;;;5072519;28;20538;-66
2021/07/30 09:37:08;;;;;;;3.85;2.72;;;22.90;59.30;;;;;;5072026;28;20170;-67
2021/07/30 09:39:34;;;;;;;4.60;3.63;;;22.90;59.30;;;;;;5070770;28;20220;-67
2021/07/30 09:42:08;;;;;;;3.88;2.88;;;22.90;59.30;;;;;;5051710;28;20175;-66
2021/07/30 09:44:43;;;;;;;3.40;3.08;;;23.00;59.20;;;;;;5051764;28;20203;-68
2021/07/30 09:47:13;;;;;;;3.42;3.13;;;23.10;59.10;;;;;;5052762;28;20586;-67
2021/07/30 09:49:49;;;;;;;4.53;3.05;;;23.10;59.10;;;;;;5052292;28;20179;-66
2021/07/30 09:52:16;;;;;;;3.20;2.80;;;23.10;59.10;;;;;;5051588;28;20555;-67
2021/07/30 09:54:52;;;;;;;3.50;2.90;;;23.10;59.00;;;;;;5052198;28;20254;-66
2021/07/30 09:57:19;;;;;;;4.03;3.00;;;23.10;59.00;;;;;;5057952;28;20659;-67
2021/07/30 09:59:45;;;;;;;4.65;2.97;;;23.10;59.00;;;;;;5052937;28;20187;-67
2021/07/30 10:02:13;;;;;;;3.13;2.85;;;23.00;59.00;;;;;;5052017;28;20178;-68
2021/07/30 10:04:49;;;;;;;5.75;2.83;;;23.10;59.00;;;;;;5051073;28;20657;-68
2021/07/30 10:07:16;;;;;;;4.10;2.85;;;23.20;59.00;;;;;;5051803;28;20233;-67
2021/07/30 10:09:43;;;;;;;5.50;3.38;;;23.20;58.90;;;;;;5052161;28;20175;-68
2021/07/30 10:12:09;;;;;;;3.35;2.88;;;23.20;58.80;;;;;;5051294;28;20176;-67
2021/07/30 10:14:34;;;;;;;3.17;2.67;;;23.20;58.90;;;;;;5033858;28;20220;-68
2021/07/30 10:17:03;;;;;;;4.13;3.00;;;23.30;58.80;;;;;;5034027;28;20163;-67
2021/07/30 10:19:30;;;;;;;4.28;3.25;;;23.30;58.80;;;;;;5050736;28;20265;-67
2021/07/30 10:21:57;;;;;;;3.47;2.75;;;23.30;58.80;;;;;;5051908;28;20564;-67
2021/07/30 10:24:22;;;;;;;5.43;3.55;;;23.30;58.80;;;;;;5051704;28;20223;-67
2021/07/30 10:26:48;;;;;;;4.30;3.22;;;23.40;58.70;;;;;;5033292;28;20174;-67
2021/07/30 10:29:14;;;;;;;2.97;2.65;;;23.40;58.60;;;;;;5033925;28;20606;-67
2021/07/30 10:31:52;;;;;;;3.70;2.90;;;23.40;58.60;;;;;;5045892;28;20231;-67
2021/07/30 10:34:21;;;;;;;4.22;2.80;;;23.40;58.60;;;;;;5035447;28;20241;-68
2021/07/30 10:36:49;;;;;;;4.47;2.83;;;23.40;58.70;;;;;;5012905;28;20613;-67
2021/07/30 10:39:16;;;;;;;3.80;2.90;;;23.40;58.70;;;;;;5031488;28;20259;-68
2021/07/30 10:42:02;;;;;;;4.05;3.10;;;23.30;58.70;;;;;;5031151;28;20615;-69
2021/07/30 10:44:27;;;;;;;4.88;2.75;;;23.30;58.70;;;;;;5031045;28;20207;-68
2021/07/30 10:47:18;;;;;;;4.43;3.17;;;23.30;58.70;;;;;;5031022;28;20168;-68
2021/07/30 10:49:43;;;;;;;4.47;2.75;;;23.40;58.60;;;;;;5031644;28;20176;-69
2021/07/30 10:52:28;;;;;;;9.35;3.53;;;23.40;58.60;;;;;;5031289;28;20722;-69
2021/07/30 10:54:54;;;;;;;4.50;2.80;;;23.40;58.60;;;;;;5030468;28;20238;-69
2021/07/30 10:57:53;;;;;;;5.07;3.05;;;23.40;58.60;;;;;;5031412;28;20171;-70
2021/07/30 11:00:19;;;;;;;5.22;2.75;;;23.40;58.60;;;;;;5031153;28;20182;-68
2021/07/30 11:03:05;;;;;;;4.28;2.85;;;23.40;58.60;;;;;;5030639;28;20180;-68
2021/07/30 11:05:31;;;;;;;3.03;2.60;;;23.40;58.40;;;;;;5030776;28;20678;-70
2021/07/30 11:08:01;;;;;;;3.00;2.63;;;23.40;58.40;;;;;;5030379;28;20357;-69
2021/07/30 11:10:26;;;;;;;6.05;2.85;;;23.40;58.40;;;;;;5031253;28;20207;-71
2021/07/30 11:12:55;;;;;;;3.72;2.22;;;23.40;58.40;;;;;;5031178;28;20210;-70
2021/07/30 11:15:33;;;;;;;4.97;2.50;;;23.40;58.50;;;;;;5030359;28;20175;-70
2021/07/30 11:18:00;;;;;;;5.07;2.72;;;23.40;58.50;;;;;;5030575;28;20533;-69
2021/07/30 11:20:31;;;;;;;4.95;2.88;;;23.50;58.30;;;;;;5031282;28;20187;-69
2021/07/30 11:23:02;;;;;;;4.60;2.72;;;23.60;58.20;;;;;;5030937;28;20179;-72
2021/07/30 11:25:28;;;;;;;6.38;3.50;;;23.60;58.00;;;;;;5031215;28;20295;-73
2021/07/30 11:27:58;;;;;;;8.48;3.60;;;23.60;58.20;;;;;;5031552;28;20172;-73
2021/07/30 11:30:27;;;;;;;3.83;2.80;;;23.70;58.10;;;;;;5030177;28;20660;-73
2021/07/30 11:32:53;;;;;;;3.65;2.45;;;23.70;58.10;;;;;;5013932;28;20168;-73
2021/07/30 11:35:19;;;;;;;4.43;2.33;;;23.70;58.00;;;;;;5031141;28;20191;-72
2021/07/30 11:37:45;;;;;;;6.38;3.17;;;23.70;58.00;;;;;;5030540;28;20619;-73
2021/07/30 11:40:14;;;;;;;3.47;2.75;;;23.80;58.00;;;;;;5031552;28;20176;-72
2021/07/30 11:42:40;;;;;;;5.50;2.65;;;23.80;58.00;;;;;;5030382;28;20511;-70
2021/07/30 11:45:07;;;;;;;3.45;2.42;;;23.70;58.00;;;;;;5031414;28;20212;-72
2021/07/30 11:47:35;;;;;;;3.63;2.60;;;23.80;57.90;;;;;;5031209;28;20176;-71
2021/07/30 11:50:07;;;;;;;4.18;3.03;;;23.90;57.70;;;;;;5030680;28;20223;-71
2021/07/30 11:52:33;;;;;;;3.38;2.42;;;24.00;57.70;;;;;;5030952;28;20184;-72
2021/07/30 11:55:19;;;;;;;3.38;2.60;;;24.00;57.70;;;;;;5031150;28;20242;-70
2021/07/30 11:57:45;;;;;;;2.92;2.58;;;23.90;57.80;;;;;;5030753;28;20187;-73
2021/07/30 12:00:11;;;;;;;3.47;2.80;;;23.90;57.90;;;;;;5031290;28;20179;-72
2021/07/30 12:02:36;;;;;;;2.50;2.28;;;23.90;57.80;;;;;;5013260;28;20176;-72
2021/07/30 12:05:02;;;;;;;4.28;2.67;;;23.90;57.90;;;;;;5030488;28;20735;-73
2021/07/30 12:07:30;;;;;;;4.28;2.63;;;23.90;57.90;;;;;;5013032;28;20224;-72
2021/07/30 12:10:00;;;;;;;3.58;2.75;;;23.90;58.00;;;;;;5013666;28;20180;-72
2021/07/30 12:12:28;;;;;;;3.72;2.38;;;23.80;58.10;;;;;;5012640;28;20181;-72
2021/07/30 12:14:54;;;;;;;3.55;2.33;;;23.70;58.20;;;;;;5013940;28;20266;-72
2021/07/30 12:17:19;;;;;;;2.55;2.35;;;23.70;58.10;;;;;;5013221;28;20216;-68
2021/07/30 12:20:08;;;;;;;3.95;2.45;;;23.70;58.20;;;;;;5012830;28;20180;-69
2021/07/30 12:22:35;;;;;;;5.43;2.65;;;23.70;58.10;;;;;;5014211;28;20176;-71
2021/07/30 12:25:00;;;;;;;4.05;2.80;;;23.70;58.10;;;;;;5013614;28;20654;-69
2021/07/30 12:27:26;;;;;;;4.13;2.42;;;23.70;58.20;;;;;;5014392;28;20180;-73
2021/07/30 12:29:51;;;;;;;4.80;2.42;;;23.70;58.20;;;;;;5013491;28;20177;-75
2021/07/30 12:32:18;;;;;;;3.40;2.80;;;23.70;58.20;;;;;;5013484;28;20175;-75
2021/07/30 12:35:01;;;;;;;4.07;2.30;;;23.70;58.20;;;;;;5014175;28;20214;-73
2021/07/30 12:37:30;;;;;;;3.45;2.88;;;23.70;58.30;;;;;;5013846;28;20749;-73
2021/07/30 12:39:58;;;;;;;4.40;2.20;;;23.60;58.20;;;;;;5013655;28;20184;-73
2021/07/30 12:42:27;;;;;;;3.38;2.30;;;23.60;58.30;;;;;;5013790;28;20545;-76
2021/07/30 12:45:12;;;;;;;2.42;2.22;;;23.60;58.40;;;;;;5014070;28;20307;-74
2021/07/30 12:47:46;;;;;;;2.63;2.42;;;23.50;58.40;;;;;;5013295;28;20180;-73